sensor_id;sensor_type;location;lat;lon;timestamp;P1;durP1;ratioP1;P2;durP2;ratioP2
13279;SDS011;6708;49.814;8.652;2023-05-20T00:01:51;2.17;;;2.03;;
13279;SDS011;6708;49.814;8.652;2023-05-20T00:04:19;2.50;;;2.23;;
13279;SDS011;6708;49.814;8.652;2023-05-20T00:06:47;2.07;;;1.77;;
13279;SDS011;6708;49.814;8.652;2023-05-20T00:09:16;1.70;;;1.60;;
13279;SDS011;6708;49.814;8.652;2023-05-20T00:11:44;2.10;;;2.00;;
13279;SDS011;6708;49.814;8.652;2023-05-20T00:14:13;2.00;;;1.60;;
13279;SDS011;6708;49.814;8.652;2023-05-20T00:16:41;1.73;;;1.63;;
13279;SDS011;6708;49.814;8.652;2023-05-20T00:19:12;2.03;;;1.73;;
13279;SDS011;6708;49.814;8.652;2023-05-20T00:21:41;1.70;;;1.60;;
13279;SDS011;6708;49.814;8.652;2023-05-20T00:24:09;2.00;;;1.80;;
13279;SDS011;6708;49.814;8.652;2023-05-20T00:26:37;1.93;;;1.83;;
13279;SDS011;6708;49.814;8.652;2023-05-20T00:29:06;2.10;;;2.00;;
13279;SDS011;6708;49.814;8.652;2023-05-20T00:31:34;2.07;;;1.90;;
13279;SDS011;6708;49.814;8.652;2023-05-20T00:34:02;1.60;;;1.50;;
13279;SDS011;6708;49.814;8.652;2023-05-20T00:36:33;1.80;;;1.70;;
13279;SDS011;6708;49.814;8.652;2023-05-20T00:39:02;1.87;;;1.70;;
13279;SDS011;6708;49.814;8.652;2023-05-20T00:41:30;2.07;;;1.83;;
13279;SDS011;6708;49.814;8.652;2023-05-20T00:43:59;2.10;;;2.00;;
13279;SDS011;6708;49.814;8.652;2023-05-20T00:46:27;2.03;;;1.83;;
13279;SDS011;6708;49.814;8.652;2023-05-20T00:48:56;2.40;;;2.20;;
13279;SDS011;6708;49.814;8.652;2023-05-20T00:51:24;1.77;;;1.67;;
13279;SDS011;6708;49.814;8.652;2023-05-20T00:53:55;2.87;;;1.60;;
13279;SDS011;6708;49.814;8.652;2023-05-20T00:56:24;2.10;;;2.00;;
13279;SDS011;6708;49.814;8.652;2023-05-20T00:58:53;1.83;;;1.73;;
13279;SDS011;6708;49.814;8.652;2023-05-20T01:01:21;1.53;;;1.43;;
13279;SDS011;6708;49.814;8.652;2023-05-20T01:03:50;1.87;;;1.57;;
13279;SDS011;6708;49.814;8.652;2023-05-20T01:06:18;4.37;;;1.77;;
13279;SDS011;6708;49.814;8.652;2023-05-20T01:08:46;2.10;;;1.93;;
13279;SDS011;6708;49.814;8.652;2023-05-20T01:11:18;2.47;;;2.10;;
13279;SDS011;6708;49.814;8.652;2023-05-20T01:13:53;2.03;;;1.93;;
13279;SDS011;6708;49.814;8.652;2023-05-20T01:16:23;1.90;;;1.80;;
13279;SDS011;6708;49.814;8.652;2023-05-20T01:18:52;1.80;;;1.70;;
13279;SDS011;6708;49.814;8.652;2023-05-20T01:21:22;1.70;;;1.60;;
13279;SDS011;6708;49.814;8.652;2023-05-20T01:23:53;2.10;;;2.00;;
13279;SDS011;6708;49.814;8.652;2023-05-20T01:26:22;1.83;;;1.73;;
13279;SDS011;6708;49.814;8.652;2023-05-20T01:28:51;1.90;;;1.80;;
13279;SDS011;6708;49.814;8.652;2023-05-20T01:31:22;1.90;;;1.80;;
13279;SDS011;6708;49.814;8.652;2023-05-20T01:33:53;2.13;;;2.00;;
13279;SDS011;6708;49.814;8.652;2023-05-20T01:36:23;2.20;;;2.10;;
13279;SDS011;6708;49.814;8.652;2023-05-20T01:38:54;3.17;;;1.93;;
13279;SDS011;6708;49.814;8.652;2023-05-20T01:41:23;2.30;;;1.83;;
13279;SDS011;6708;49.814;8.652;2023-05-20T01:43:52;1.80;;;1.70;;
13279;SDS011;6708;49.814;8.652;2023-05-20T01:46:22;2.10;;;2.00;;
13279;SDS011;6708;49.814;8.652;2023-05-20T01:48:51;1.60;;;1.60;;
13279;SDS011;6708;49.814;8.652;2023-05-20T01:51:19;1.80;;;1.70;;
13279;SDS011;6708;49.814;8.652;2023-05-20T01:53:48;1.80;;;1.70;;
13279;SDS011;6708;49.814;8.652;2023-05-20T01:56:18;2.07;;;1.97;;
13279;SDS011;6708;49.814;8.652;2023-05-20T01:58:47;2.03;;;1.57;;
13279;SDS011;6708;49.814;8.652;2023-05-20T02:01:16;1.97;;;1.87;;
13279;SDS011;6708;49.814;8.652;2023-05-20T02:03:44;6.00;;;2.07;;
13279;SDS011;6708;49.814;8.652;2023-05-20T02:06:12;3.50;;;2.27;;
13279;SDS011;6708;49.814;8.652;2023-05-20T02:08:41;2.33;;;2.23;;
13279;SDS011;6708;49.814;8.652;2023-05-20T02:11:09;1.73;;;1.70;;
13279;SDS011;6708;49.814;8.652;2023-05-20T02:13:40;1.67;;;1.57;;
13279;SDS011;6708;49.814;8.652;2023-05-20T02:16:09;1.53;;;1.50;;
13279;SDS011;6708;49.814;8.652;2023-05-20T02:18:37;1.63;;;1.63;;
13279;SDS011;6708;49.814;8.652;2023-05-20T02:21:06;1.67;;;1.57;;
13279;SDS011;6708;49.814;8.652;2023-05-20T02:23:36;2.10;;;2.00;;
13279;SDS011;6708;49.814;8.652;2023-05-20T02:26:04;1.60;;;1.50;;
13279;SDS011;6708;49.814;8.652;2023-05-20T02:28:35;1.80;;;1.70;;
13279;SDS011;6708;49.814;8.652;2023-05-20T02:31:10;2.23;;;1.70;;
13279;SDS011;6708;49.814;8.652;2023-05-20T02:33:38;2.27;;;2.07;;
13279;SDS011;6708;49.814;8.652;2023-05-20T02:36:06;1.73;;;1.63;;
13279;SDS011;6708;49.814;8.652;2023-05-20T02:38:35;7.17;;;2.27;;
13279;SDS011;6708;49.814;8.652;2023-05-20T02:41:03;1.60;;;1.50;;
13279;SDS011;6708;49.814;8.652;2023-05-20T02:43:32;4.43;;;1.80;;
13279;SDS011;6708;49.814;8.652;2023-05-20T02:46:00;1.70;;;1.70;;
13279;SDS011;6708;49.814;8.652;2023-05-20T02:48:31;1.73;;;1.63;;
13279;SDS011;6708;49.814;8.652;2023-05-20T02:51:00;2.03;;;1.80;;
13279;SDS011;6708;49.814;8.652;2023-05-20T02:53:28;1.80;;;1.70;;
13279;SDS011;6708;49.814;8.652;2023-05-20T02:55:56;1.70;;;1.70;;
13279;SDS011;6708;49.814;8.652;2023-05-20T02:58:25;1.73;;;1.63;;
13279;SDS011;6708;49.814;8.652;2023-05-20T03:00:54;1.63;;;1.53;;
13279;SDS011;6708;49.814;8.652;2023-05-20T03:03:23;2.00;;;1.90;;
13279;SDS011;6708;49.814;8.652;2023-05-20T03:05:56;1.97;;;1.70;;
13279;SDS011;6708;49.814;8.652;2023-05-20T03:08:24;1.53;;;1.50;;
13279;SDS011;6708;49.814;8.652;2023-05-20T03:10:55;1.80;;;1.70;;
13279;SDS011;6708;49.814;8.652;2023-05-20T03:13:23;2.53;;;2.13;;
13279;SDS011;6708;49.814;8.652;2023-05-20T03:15:52;1.93;;;1.83;;
13279;SDS011;6708;49.814;8.652;2023-05-20T03:18:22;2.07;;;1.97;;
13279;SDS011;6708;49.814;8.652;2023-05-20T03:20:50;2.13;;;1.50;;
13279;SDS011;6708;49.814;8.652;2023-05-20T03:23:21;1.40;;;1.40;;
13279;SDS011;6708;49.814;8.652;2023-05-20T03:25:49;1.60;;;1.47;;
13279;SDS011;6708;49.814;8.652;2023-05-20T03:28:18;1.77;;;1.67;;
13279;SDS011;6708;49.814;8.652;2023-05-20T03:30:46;1.47;;;1.47;;
13279;SDS011;6708;49.814;8.652;2023-05-20T03:33:15;1.83;;;1.73;;
13279;SDS011;6708;49.814;8.652;2023-05-20T03:35:43;2.10;;;2.00;;
13279;SDS011;6708;49.814;8.652;2023-05-20T03:38:13;1.90;;;1.80;;
13279;SDS011;6708;49.814;8.652;2023-05-20T03:40:44;2.10;;;2.00;;
13279;SDS011;6708;49.814;8.652;2023-05-20T03:43:12;1.93;;;1.70;;
13279;SDS011;6708;49.814;8.652;2023-05-20T03:45:41;2.53;;;2.20;;
13279;SDS011;6708;49.814;8.652;2023-05-20T03:48:09;3.97;;;3.70;;
13279;SDS011;6708;49.814;8.652;2023-05-20T03:50:38;3.20;;;3.00;;
13279;SDS011;6708;49.814;8.652;2023-05-20T03:53:07;5.33;;;3.10;;
13279;SDS011;6708;49.814;8.652;2023-05-20T03:55:38;2.37;;;2.27;;
13279;SDS011;6708;49.814;8.652;2023-05-20T03:58:11;1.93;;;1.83;;
13279;SDS011;6708;49.814;8.652;2023-05-20T04:00:43;2.17;;;2.00;;
13279;SDS011;6708;49.814;8.652;2023-05-20T04:03:14;1.80;;;1.70;;
13279;SDS011;6708;49.814;8.652;2023-05-20T04:05:43;2.30;;;2.20;;
13279;SDS011;6708;49.814;8.652;2023-05-20T04:08:16;2.30;;;2.20;;
13279;SDS011;6708;49.814;8.652;2023-05-20T04:10:46;2.57;;;1.97;;
13279;SDS011;6708;49.814;8.652;2023-05-20T04:13:17;2.33;;;2.23;;
13279;SDS011;6708;49.814;8.652;2023-05-20T04:15:46;1.97;;;1.87;;
13279;SDS011;6708;49.814;8.652;2023-05-20T04:18:15;2.50;;;2.30;;
13279;SDS011;6708;49.814;8.652;2023-05-20T04:20:44;1.80;;;1.70;;
13279;SDS011;6708;49.814;8.652;2023-05-20T04:23:13;1.93;;;1.73;;
13279;SDS011;6708;49.814;8.652;2023-05-20T04:25:42;2.00;;;1.90;;
13279;SDS011;6708;49.814;8.652;2023-05-20T04:28:11;4.73;;;1.90;;
13279;SDS011;6708;49.814;8.652;2023-05-20T04:30:43;3.37;;;2.10;;
13279;SDS011;6708;49.814;8.652;2023-05-20T04:33:12;2.20;;;2.10;;
13279;SDS011;6708;49.814;8.652;2023-05-20T04:35:42;2.20;;;2.07;;
13279;SDS011;6708;49.814;8.652;2023-05-20T04:38:12;2.47;;;2.27;;
13279;SDS011;6708;49.814;8.652;2023-05-20T04:40:40;1.70;;;1.70;;
13279;SDS011;6708;49.814;8.652;2023-05-20T04:43:09;1.83;;;1.80;;
13279;SDS011;6708;49.814;8.652;2023-05-20T04:45:39;4.33;;;2.27;;
13279;SDS011;6708;49.814;8.652;2023-05-20T04:48:10;2.03;;;1.97;;
13279;SDS011;6708;49.814;8.652;2023-05-20T04:50:38;2.43;;;2.33;;
13279;SDS011;6708;49.814;8.652;2023-05-20T04:53:07;2.07;;;1.97;;
13279;SDS011;6708;49.814;8.652;2023-05-20T04:55:35;2.10;;;1.70;;
13279;SDS011;6708;49.814;8.652;2023-05-20T04:58:04;2.43;;;1.83;;
13279;SDS011;6708;49.814;8.652;2023-05-20T05:00:32;1.87;;;1.77;;
13279;SDS011;6708;49.814;8.652;2023-05-20T05:03:01;2.00;;;1.90;;
13279;SDS011;6708;49.814;8.652;2023-05-20T05:05:31;2.17;;;2.07;;
13279;SDS011;6708;49.814;8.652;2023-05-20T05:08:02;2.10;;;2.00;;
13279;SDS011;6708;49.814;8.652;2023-05-20T05:10:32;2.07;;;1.97;;
13279;SDS011;6708;49.814;8.652;2023-05-20T05:13:00;2.50;;;2.40;;
13279;SDS011;6708;49.814;8.652;2023-05-20T05:15:29;1.93;;;1.80;;
13279;SDS011;6708;49.814;8.652;2023-05-20T05:17:57;2.10;;;2.00;;
13279;SDS011;6708;49.814;8.652;2023-05-20T05:20:26;2.53;;;2.33;;
13279;SDS011;6708;49.814;8.652;2023-05-20T05:22:57;1.80;;;1.80;;
13279;SDS011;6708;49.814;8.652;2023-05-20T05:25:25;2.17;;;2.07;;
13279;SDS011;6708;49.814;8.652;2023-05-20T05:27:56;2.10;;;1.90;;
13279;SDS011;6708;49.814;8.652;2023-05-20T05:30:25;2.07;;;1.97;;
13279;SDS011;6708;49.814;8.652;2023-05-20T05:32:53;2.17;;;2.07;;
13279;SDS011;6708;49.814;8.652;2023-05-20T05:35:22;2.47;;;2.33;;
13279;SDS011;6708;49.814;8.652;2023-05-20T05:37:51;2.37;;;1.73;;
13279;SDS011;6708;49.814;8.652;2023-05-20T05:40:26;2.70;;;2.60;;
13279;SDS011;6708;49.814;8.652;2023-05-20T05:42:55;2.57;;;2.47;;
13279;SDS011;6708;49.814;8.652;2023-05-20T05:45:23;9.67;;;2.77;;
13279;SDS011;6708;49.814;8.652;2023-05-20T05:47:52;2.13;;;2.03;;
13279;SDS011;6708;49.814;8.652;2023-05-20T05:50:21;2.67;;;2.13;;
13279;SDS011;6708;49.814;8.652;2023-05-20T05:52:49;3.87;;;2.40;;
13279;SDS011;6708;49.814;8.652;2023-05-20T05:55:18;2.13;;;2.00;;
13279;SDS011;6708;49.814;8.652;2023-05-20T05:57:51;1.83;;;1.73;;
13279;SDS011;6708;49.814;8.652;2023-05-20T06:00:20;2.40;;;2.30;;
13279;SDS011;6708;49.814;8.652;2023-05-20T06:02:49;1.53;;;1.53;;
13279;SDS011;6708;49.814;8.652;2023-05-20T06:05:31;2.47;;;2.27;;
13279;SDS011;6708;49.814;8.652;2023-05-20T06:07:59;2.03;;;1.93;;
13279;SDS011;6708;49.814;8.652;2023-05-20T06:10:29;2.33;;;2.17;;
13279;SDS011;6708;49.814;8.652;2023-05-20T06:13:00;4.73;;;2.40;;
13279;SDS011;6708;49.814;8.652;2023-05-20T06:15:30;2.40;;;2.23;;
13279;SDS011;6708;49.814;8.652;2023-05-20T06:18:01;2.27;;;2.07;;
13279;SDS011;6708;49.814;8.652;2023-05-20T06:20:30;2.17;;;2.07;;
13279;SDS011;6708;49.814;8.652;2023-05-20T06:22:59;2.50;;;2.40;;
13279;SDS011;6708;49.814;8.652;2023-05-20T06:25:36;2.97;;;2.77;;
13279;SDS011;6708;49.814;8.652;2023-05-20T06:28:08;4.03;;;2.43;;
13279;SDS011;6708;49.814;8.652;2023-05-20T06:30:36;4.27;;;1.80;;
13279;SDS011;6708;49.814;8.652;2023-05-20T06:33:05;2.20;;;2.10;;
13279;SDS011;6708;49.814;8.652;2023-05-20T06:35:34;2.40;;;2.30;;
13279;SDS011;6708;49.814;8.652;2023-05-20T06:38:03;2.27;;;2.17;;
13279;SDS011;6708;49.814;8.652;2023-05-20T06:40:32;2.23;;;2.13;;
13279;SDS011;6708;49.814;8.652;2023-05-20T06:43:00;2.20;;;2.10;;
13279;SDS011;6708;49.814;8.652;2023-05-20T06:46:09;2.50;;;2.33;;
13279;SDS011;6708;49.814;8.652;2023-05-20T06:48:50;2.53;;;2.33;;
13279;SDS011;6708;49.814;8.652;2023-05-20T06:51:19;2.37;;;2.17;;
13279;SDS011;6708;49.814;8.652;2023-05-20T06:53:48;2.50;;;2.30;;
13279;SDS011;6708;49.814;8.652;2023-05-20T06:56:17;2.47;;;2.30;;
13279;SDS011;6708;49.814;8.652;2023-05-20T06:58:45;2.37;;;2.27;;
13279;SDS011;6708;49.814;8.652;2023-05-20T07:01:17;3.33;;;2.27;;
13279;SDS011;6708;49.814;8.652;2023-05-20T07:03:45;2.77;;;2.57;;
13279;SDS011;6708;49.814;8.652;2023-05-20T07:06:14;5.03;;;2.47;;
13279;SDS011;6708;49.814;8.652;2023-05-20T07:08:42;4.23;;;2.30;;
13279;SDS011;6708;49.814;8.652;2023-05-20T07:11:12;2.23;;;2.13;;
13279;SDS011;6708;49.814;8.652;2023-05-20T07:13:40;3.23;;;1.97;;
13279;SDS011;6708;49.814;8.652;2023-05-20T07:16:08;4.53;;;2.60;;
13279;SDS011;6708;49.814;8.652;2023-05-20T07:18:42;2.60;;;2.40;;
13279;SDS011;6708;49.814;8.652;2023-05-20T07:21:11;2.43;;;2.33;;
13279;SDS011;6708;49.814;8.652;2023-05-20T07:23:50;2.40;;;2.30;;
13279;SDS011;6708;49.814;8.652;2023-05-20T07:26:18;4.87;;;2.70;;
13279;SDS011;6708;49.814;8.652;2023-05-20T07:28:47;4.10;;;2.77;;
13279;SDS011;6708;49.814;8.652;2023-05-20T07:31:16;3.50;;;2.70;;
13279;SDS011;6708;49.814;8.652;2023-05-20T07:33:47;3.73;;;2.93;;
13279;SDS011;6708;49.814;8.652;2023-05-20T07:36:15;2.63;;;2.43;;
13279;SDS011;6708;49.814;8.652;2023-05-20T07:38:47;3.00;;;2.80;;
13279;SDS011;6708;49.814;8.652;2023-05-20T07:41:17;2.50;;;2.40;;
13279;SDS011;6708;49.814;8.652;2023-05-20T07:43:46;5.50;;;2.80;;
13279;SDS011;6708;49.814;8.652;2023-05-20T07:46:15;3.00;;;2.80;;
13279;SDS011;6708;49.814;8.652;2023-05-20T07:48:43;2.63;;;2.53;;
13279;SDS011;6708;49.814;8.652;2023-05-20T07:51:14;3.23;;;3.03;;
13279;SDS011;6708;49.814;8.652;2023-05-20T07:53:43;2.83;;;2.73;;
13279;SDS011;6708;49.814;8.652;2023-05-20T07:56:11;2.90;;;2.70;;
13279;SDS011;6708;49.814;8.652;2023-05-20T07:58:40;2.70;;;2.50;;
13279;SDS011;6708;49.814;8.652;2023-05-20T08:01:09;3.00;;;2.70;;
13279;SDS011;6708;49.814;8.652;2023-05-20T08:03:38;3.00;;;2.80;;
13279;SDS011;6708;49.814;8.652;2023-05-20T08:06:10;3.40;;;3.10;;
13279;SDS011;6708;49.814;8.652;2023-05-20T08:08:42;3.73;;;2.77;;
13279;SDS011;6708;49.814;8.652;2023-05-20T08:11:17;4.07;;;2.87;;
13279;SDS011;6708;49.814;8.652;2023-05-20T08:13:45;2.90;;;2.80;;
13279;SDS011;6708;49.814;8.652;2023-05-20T08:16:15;2.97;;;2.70;;
13279;SDS011;6708;49.814;8.652;2023-05-20T08:18:44;3.43;;;2.80;;
13279;SDS011;6708;49.814;8.652;2023-05-20T08:21:12;3.27;;;3.07;;
13279;SDS011;6708;49.814;8.652;2023-05-20T08:23:44;3.23;;;3.03;;
13279;SDS011;6708;49.814;8.652;2023-05-20T08:26:12;3.50;;;3.30;;
13279;SDS011;6708;49.814;8.652;2023-05-20T08:28:41;4.77;;;3.23;;
13279;SDS011;6708;49.814;8.652;2023-05-20T08:31:11;4.17;;;3.17;;
13279;SDS011;6708;49.814;8.652;2023-05-20T08:33:39;3.20;;;2.90;;
13279;SDS011;6708;49.814;8.652;2023-05-20T08:36:08;5.93;;;3.20;;
13279;SDS011;6708;49.814;8.652;2023-05-20T08:38:37;3.87;;;3.37;;
13279;SDS011;6708;49.814;8.652;2023-05-20T08:41:08;3.40;;;3.20;;
13279;SDS011;6708;49.814;8.652;2023-05-20T08:43:39;3.63;;;3.33;;
13279;SDS011;6708;49.814;8.652;2023-05-20T08:46:08;3.53;;;3.33;;
13279;SDS011;6708;49.814;8.652;2023-05-20T08:48:37;3.83;;;3.53;;
13279;SDS011;6708;49.814;8.652;2023-05-20T08:51:06;4.17;;;3.80;;
13279;SDS011;6708;49.814;8.652;2023-05-20T08:53:36;3.90;;;3.60;;
13279;SDS011;6708;49.814;8.652;2023-05-20T08:56:05;3.60;;;3.40;;
13279;SDS011;6708;49.814;8.652;2023-05-20T08:58:37;3.77;;;3.47;;
13279;SDS011;6708;49.814;8.652;2023-05-20T09:01:07;4.20;;;3.90;;
13279;SDS011;6708;49.814;8.652;2023-05-20T09:03:35;3.80;;;3.37;;
13279;SDS011;6708;49.814;8.652;2023-05-20T09:06:05;3.73;;;3.43;;
13279;SDS011;6708;49.814;8.652;2023-05-20T09:08:34;3.40;;;3.20;;
13279;SDS011;6708;49.814;8.652;2023-05-20T09:11:02;3.87;;;3.57;;
13279;SDS011;6708;49.814;8.652;2023-05-20T09:13:33;2.80;;;2.70;;
13279;SDS011;6708;49.814;8.652;2023-05-20T09:16:02;4.17;;;3.97;;
13279;SDS011;6708;49.814;8.652;2023-05-20T09:18:30;6.10;;;3.37;;
13279;SDS011;6708;49.814;8.652;2023-05-20T09:21:03;3.97;;;3.77;;
13279;SDS011;6708;49.814;8.652;2023-05-20T09:23:32;3.70;;;3.50;;
13279;SDS011;6708;49.814;8.652;2023-05-20T09:26:03;3.63;;;3.43;;
13279;SDS011;6708;49.814;8.652;2023-05-20T09:28:34;4.07;;;3.73;;
13279;SDS011;6708;49.814;8.652;2023-05-20T09:31:05;3.73;;;3.43;;
13279;SDS011;6708;49.814;8.652;2023-05-20T09:33:35;3.43;;;3.13;;
13279;SDS011;6708;49.814;8.652;2023-05-20T09:36:04;4.30;;;3.60;;
13279;SDS011;6708;49.814;8.652;2023-05-20T09:38:35;3.20;;;3.00;;
13279;SDS011;6708;49.814;8.652;2023-05-20T09:41:05;3.40;;;3.20;;
13279;SDS011;6708;49.814;8.652;2023-05-20T09:43:37;3.40;;;3.20;;
13279;SDS011;6708;49.814;8.652;2023-05-20T09:46:07;2.85;;;2.72;;
13279;SDS011;6708;49.814;8.652;2023-05-20T09:48:35;3.50;;;3.30;;
13279;SDS011;6708;49.814;8.652;2023-05-20T09:51:04;6.20;;;3.47;;
13279;SDS011;6708;49.814;8.652;2023-05-20T09:53:33;3.50;;;3.20;;
13279;SDS011;6708;49.814;8.652;2023-05-20T09:56:03;3.80;;;3.50;;
13279;SDS011;6708;49.814;8.652;2023-05-20T09:58:32;3.73;;;3.37;;
13279;SDS011;6708;49.814;8.652;2023-05-20T10:01:03;3.63;;;3.43;;
13279;SDS011;6708;49.814;8.652;2023-05-20T10:03:33;3.00;;;2.80;;
13279;SDS011;6708;49.814;8.652;2023-05-20T10:06:08;3.27;;;3.07;;
13279;SDS011;6708;49.814;8.652;2023-05-20T10:08:52;3.57;;;3.37;;
13279;SDS011;6708;49.814;8.652;2023-05-20T10:11:28;3.30;;;3.10;;
13279;SDS011;6708;49.814;8.652;2023-05-20T10:16:53;2.80;;;2.70;;
13279;SDS011;6708;49.814;8.652;2023-05-20T10:19:26;3.58;;;3.40;;
13279;SDS011;6708;49.814;8.652;2023-05-20T10:21:56;3.38;;;3.17;;
13279;SDS011;6708;49.814;8.652;2023-05-20T10:24:29;3.20;;;3.00;;
13279;SDS011;6708;49.814;8.652;2023-05-20T10:27:00;3.83;;;3.63;;
13279;SDS011;6708;49.814;8.652;2023-05-20T10:29:31;3.60;;;3.30;;
13279;SDS011;6708;49.814;8.652;2023-05-20T10:32:21;3.38;;;3.10;;
13279;SDS011;6708;49.814;8.652;2023-05-20T10:34:51;3.40;;;3.08;;
13279;SDS011;6708;49.814;8.652;2023-05-20T10:37:23;3.38;;;3.17;;
13279;SDS011;6708;49.814;8.652;2023-05-20T10:40:01;3.17;;;2.97;;
13279;SDS011;6708;49.814;8.652;2023-05-20T10:42:32;3.25;;;3.05;;
13279;SDS011;6708;49.814;8.652;2023-05-20T10:45:01;3.20;;;3.00;;
13279;SDS011;6708;49.814;8.652;2023-05-20T10:47:33;3.53;;;3.25;;
13279;SDS011;6708;49.814;8.652;2023-05-20T10:50:02;3.35;;;3.13;;
13279;SDS011;6708;49.814;8.652;2023-05-20T10:52:32;3.72;;;3.40;;
13279;SDS011;6708;49.814;8.652;2023-05-20T10:55:01;3.10;;;2.80;;
13279;SDS011;6708;49.814;8.652;2023-05-20T10:57:30;3.22;;;3.10;;
13279;SDS011;6708;49.814;8.652;2023-05-20T10:59:58;3.75;;;3.40;;
13279;SDS011;6708;49.814;8.652;2023-05-20T11:02:29;3.75;;;3.33;;
13279;SDS011;6708;49.814;8.652;2023-05-20T11:05:00;3.65;;;3.20;;
13279;SDS011;6708;49.814;8.652;2023-05-20T11:07:30;3.55;;;3.35;;
13279;SDS011;6708;49.814;8.652;2023-05-20T11:09:59;3.63;;;3.35;;
13279;SDS011;6708;49.814;8.652;2023-05-20T11:12:28;4.05;;;3.75;;
13279;SDS011;6708;49.814;8.652;2023-05-20T11:14:56;4.63;;;3.45;;
13279;SDS011;6708;49.814;8.652;2023-05-20T11:17:24;4.15;;;3.72;;
13279;SDS011;6708;49.814;8.652;2023-05-20T11:19:55;4.57;;;3.60;;
13279;SDS011;6708;49.814;8.652;2023-05-20T11:22:25;3.60;;;3.40;;
13279;SDS011;6708;49.814;8.652;2023-05-20T11:24:53;3.90;;;3.63;;
13279;SDS011;6708;49.814;8.652;2023-05-20T11:27:21;3.50;;;3.30;;
13279;SDS011;6708;49.814;8.652;2023-05-20T11:29:50;3.60;;;3.30;;
13279;SDS011;6708;49.814;8.652;2023-05-20T11:32:18;4.68;;;3.63;;
13279;SDS011;6708;49.814;8.652;2023-05-20T11:34:49;3.88;;;3.58;;
13279;SDS011;6708;49.814;8.652;2023-05-20T11:37:21;3.30;;;3.10;;
13279;SDS011;6708;49.814;8.652;2023-05-20T11:40:01;4.43;;;3.53;;
13279;SDS011;6708;49.814;8.652;2023-05-20T11:42:32;3.67;;;3.45;;
13279;SDS011;6708;49.814;8.652;2023-05-20T11:45:01;4.43;;;3.63;;
13279;SDS011;6708;49.814;8.652;2023-05-20T11:47:29;4.35;;;3.95;;
13279;SDS011;6708;49.814;8.652;2023-05-20T11:49:57;3.70;;;3.40;;
13279;SDS011;6708;49.814;8.652;2023-05-20T11:52:30;3.50;;;3.30;;
13279;SDS011;6708;49.814;8.652;2023-05-20T11:55:00;3.65;;;3.38;;
13279;SDS011;6708;49.814;8.652;2023-05-20T11:57:29;3.70;;;3.20;;
13279;SDS011;6708;49.814;8.652;2023-05-20T11:59:58;3.65;;;3.45;;
13279;SDS011;6708;49.814;8.652;2023-05-20T12:02:26;3.50;;;3.30;;
13279;SDS011;6708;49.814;8.652;2023-05-20T12:04:54;3.58;;;3.38;;
13279;SDS011;6708;49.814;8.652;2023-05-20T12:07:23;4.32;;;3.95;;
13279;SDS011;6708;49.814;8.652;2023-05-20T12:09:55;3.53;;;3.40;;
13279;SDS011;6708;49.814;8.652;2023-05-20T12:12:23;3.78;;;3.38;;
13279;SDS011;6708;49.814;8.652;2023-05-20T12:14:52;4.28;;;3.60;;
13279;SDS011;6708;49.814;8.652;2023-05-20T12:17:20;4.70;;;4.30;;
13279;SDS011;6708;49.814;8.652;2023-05-20T12:19:48;3.90;;;3.60;;
13279;SDS011;6708;49.814;8.652;2023-05-20T12:22:17;4.13;;;3.72;;
13279;SDS011;6708;49.814;8.652;2023-05-20T12:24:45;3.90;;;3.70;;
13279;SDS011;6708;49.814;8.652;2023-05-20T12:27:16;3.72;;;3.53;;
13279;SDS011;6708;49.814;8.652;2023-05-20T12:29:45;4.32;;;3.78;;
13279;SDS011;6708;49.814;8.652;2023-05-20T12:32:13;3.63;;;3.42;;
13279;SDS011;6708;49.814;8.652;2023-05-20T12:34:41;3.60;;;3.38;;
13279;SDS011;6708;49.814;8.652;2023-05-20T12:37:10;4.10;;;3.80;;
13279;SDS011;6708;49.814;8.652;2023-05-20T12:39:38;4.05;;;3.83;;
13279;SDS011;6708;49.814;8.652;2023-05-20T12:42:07;4.28;;;3.70;;
13279;SDS011;6708;49.814;8.652;2023-05-20T12:44:38;3.92;;;3.63;;
13279;SDS011;6708;49.814;8.652;2023-05-20T12:47:07;3.35;;;3.15;;
13279;SDS011;6708;49.814;8.652;2023-05-20T12:49:35;5.28;;;3.92;;
13279;SDS011;6708;49.814;8.652;2023-05-20T12:52:04;3.75;;;3.55;;
13279;SDS011;6708;49.814;8.652;2023-05-20T12:54:33;4.05;;;3.78;;
13279;SDS011;6708;49.814;8.652;2023-05-20T12:57:01;7.15;;;3.63;;
13279;SDS011;6708;49.814;8.652;2023-05-20T12:59:30;3.72;;;3.53;;
13279;SDS011;6708;49.814;8.652;2023-05-20T13:02:01;3.92;;;3.72;;
13279;SDS011;6708;49.814;8.652;2023-05-20T13:04:29;7.43;;;3.20;;
13279;SDS011;6708;49.814;8.652;2023-05-20T13:06:58;3.45;;;3.25;;
13279;SDS011;6708;49.814;8.652;2023-05-20T13:09:26;3.83;;;3.53;;
13279;SDS011;6708;49.814;8.652;2023-05-20T13:11:55;3.47;;;3.28;;
13279;SDS011;6708;49.814;8.652;2023-05-20T13:14:23;6.63;;;3.83;;
13279;SDS011;6708;49.814;8.652;2023-05-20T13:16:52;3.95;;;3.75;;
13279;SDS011;6708;49.814;8.652;2023-05-20T13:19:23;5.03;;;3.60;;
13279;SDS011;6708;49.814;8.652;2023-05-20T13:21:51;4.43;;;3.78;;
13279;SDS011;6708;49.814;8.652;2023-05-20T13:24:20;4.38;;;4.07;;
13279;SDS011;6708;49.814;8.652;2023-05-20T13:26:49;5.43;;;4.00;;
13279;SDS011;6708;49.814;8.652;2023-05-20T13:29:17;4.22;;;3.83;;
13279;SDS011;6708;49.814;8.652;2023-05-20T13:31:46;4.53;;;4.15;;
13279;SDS011;6708;49.814;8.652;2023-05-20T13:34:14;4.38;;;4.07;;
13279;SDS011;6708;49.814;8.652;2023-05-20T13:36:45;4.88;;;3.92;;
13279;SDS011;6708;49.814;8.652;2023-05-20T13:39:14;3.55;;;3.35;;
13279;SDS011;6708;49.814;8.652;2023-05-20T13:41:42;4.20;;;3.83;;
13279;SDS011;6708;49.814;8.652;2023-05-20T13:44:11;3.83;;;3.53;;
13279;SDS011;6708;49.814;8.652;2023-05-20T13:46:39;4.10;;;3.80;;
13279;SDS011;6708;49.814;8.652;2023-05-20T13:49:08;4.90;;;4.25;;
13279;SDS011;6708;49.814;8.652;2023-05-20T13:51:36;4.03;;;3.75;;
13279;SDS011;6708;49.814;8.652;2023-05-20T13:54:07;4.30;;;4.03;;
13279;SDS011;6708;49.814;8.652;2023-05-20T13:56:35;4.15;;;3.85;;
13279;SDS011;6708;49.814;8.652;2023-05-20T13:59:04;4.10;;;3.88;;
13279;SDS011;6708;49.814;8.652;2023-05-20T14:01:32;4.07;;;3.83;;
13279;SDS011;6708;49.814;8.652;2023-05-20T14:04:01;4.40;;;3.95;;
13279;SDS011;6708;49.814;8.652;2023-05-20T14:06:29;6.97;;;4.03;;
13279;SDS011;6708;49.814;8.652;2023-05-20T14:09:01;4.75;;;3.88;;
13279;SDS011;6708;49.814;8.652;2023-05-20T14:11:46;4.43;;;4.13;;
13279;SDS011;6708;49.814;8.652;2023-05-20T14:14:15;4.45;;;4.05;;
13279;SDS011;6708;49.814;8.652;2023-05-20T14:16:43;4.68;;;4.30;;
13279;SDS011;6708;49.814;8.652;2023-05-20T14:19:12;4.20;;;3.90;;
13279;SDS011;6708;49.814;8.652;2023-05-20T14:21:40;4.65;;;4.28;;
13279;SDS011;6708;49.814;8.652;2023-05-20T14:24:09;4.65;;;4.35;;
13279;SDS011;6708;49.814;8.652;2023-05-20T14:26:37;4.70;;;4.30;;
13279;SDS011;6708;49.814;8.652;2023-05-20T14:29:08;4.65;;;4.25;;
13279;SDS011;6708;49.814;8.652;2023-05-20T14:31:37;4.90;;;4.07;;
13279;SDS011;6708;49.814;8.652;2023-05-20T14:34:05;12.68;;;4.35;;
13279;SDS011;6708;49.814;8.652;2023-05-20T14:36:33;4.43;;;4.15;;
13279;SDS011;6708;49.814;8.652;2023-05-20T14:39:02;4.13;;;3.83;;
13279;SDS011;6708;49.814;8.652;2023-05-20T14:41:30;4.65;;;4.32;;
13279;SDS011;6708;49.814;8.652;2023-05-20T14:43:59;4.40;;;4.10;;
13279;SDS011;6708;49.814;8.652;2023-05-20T14:46:30;4.28;;;3.97;;
13279;SDS011;6708;49.814;8.652;2023-05-20T14:48:58;4.50;;;4.10;;
13279;SDS011;6708;49.814;8.652;2023-05-20T14:51:27;6.57;;;4.70;;
13279;SDS011;6708;49.814;8.652;2023-05-20T14:53:55;11.32;;;4.38;;
13279;SDS011;6708;49.814;8.652;2023-05-20T14:56:23;5.32;;;4.18;;
13279;SDS011;6708;49.814;8.652;2023-05-20T14:58:52;5.00;;;4.60;;
13279;SDS011;6708;49.814;8.652;2023-05-20T15:01:20;6.10;;;4.18;;
13279;SDS011;6708;49.814;8.652;2023-05-20T15:03:51;4.20;;;3.92;;
13279;SDS011;6708;49.814;8.652;2023-05-20T15:06:20;5.72;;;4.43;;
13279;SDS011;6708;49.814;8.652;2023-05-20T15:08:48;4.72;;;4.25;;
13279;SDS011;6708;49.814;8.652;2023-05-20T15:11:17;4.35;;;4.10;;
13279;SDS011;6708;49.814;8.652;2023-05-20T15:13:46;5.38;;;4.55;;
13279;SDS011;6708;49.814;8.652;2023-05-20T15:16:15;4.38;;;4.07;;
13279;SDS011;6708;49.814;8.652;2023-05-20T15:18:48;5.53;;;4.68;;